Time;durP1;ratioP1;P1;durP2;ratioP2;P2;SDS_P1;SDS_P2;PMS_P1;PMS_P2;Temp;Humidity;BMP_temperature;BMP_pressure;BME280_temperature;BME280_humidity;BME280_pressure;Samples;Min_cycle;Max_cycle;Signal;HPM_P1;HPM_P2
2023/09/09 00:02:17;;;;;;;2.80;2.40;;;;;;;15.57;100.00;98116.09;1226011;75;2915410;-66
2023/09/09 00:04:50;;;;;;;2.05;1.85;;;;;;;15.66;100.00;98105.56;1226434;75;2921707;-68
2023/09/09 00:07:23;;;;;;;1.95;1.70;;;;;;;15.72;100.00;98103.59;1225849;75;2915943;-68
2023/09/09 00:09:55;;;;;;;2.35;1.60;;;;;;;15.72;100.00;98111.13;1225941;75;2912488;-68
2023/09/09 00:12:28;;;;;;;2.35;2.15;;;;;;;15.42;100.00;98102.50;1225521;75;2915872;-69
2023/09/09 00:15:05;;;;;;;2.60;2.35;;;;;;;15.43;100.00;98106.78;1225972;75;2916878;-69
2023/09/09 00:17:38;;;;;;;2.35;2.15;;;;;;;15.59;100.00;98108.06;1225789;75;2912834;-68
2023/09/09 00:20:14;;;;;;;2.70;2.30;;;;;;;15.49;100.00;98102.78;1226352;75;2919231;-68
2023/09/09 00:22:47;;;;;;;2.70;2.30;;;;;;;15.35;100.00;98106.50;1226551;75;2913798;-67
2023/09/09 00:25:19;;;;;;;1.75;1.50;;;;;;;15.42;100.00;98106.03;1226606;75;2922628;-67
2023/09/09 00:27:52;;;;;;;3.35;1.70;;;;;;;15.49;100.00;98104.75;1226259;75;2916334;-69
2023/09/09 00:30:27;;;;;;;3.00;2.05;;;;;;;15.50;100.00;98106.28;1225946;75;2913244;-69
2023/09/09 00:33:01;;;;;;;2.15;1.95;;;;;;;15.31;100.00;98109.47;1226332;75;2918201;-68
2023/09/09 00:35:34;;;;;;;2.20;2.00;;;;;;;15.34;100.00;98108.50;1225682;75;2920038;-66
2023/09/09 00:38:07;;;;;;;2.25;1.90;;;;;;;15.40;100.00;98105.00;1226072;75;2921181;-70
2023/09/09 00:40:39;;;;;;;1.85;1.65;;;;;;;15.37;100.00;98104.00;1226365;75;2925459;-67
2023/09/09 00:43:12;;;;;;;2.15;1.60;;;;;;;15.40;100.00;98105.75;1225979;75;2914849;-67
2023/09/09 00:45:47;;;;;;;1.85;1.60;;;;;;;15.41;100.00;98107.25;1226311;75;2917461;-69
2023/09/09 00:48:20;;;;;;;1.60;1.50;;;;;;;15.28;100.00;98102.22;1225232;75;2917601;-67
2023/09/09 00:50:52;;;;;;;2.00;1.70;;;;;;;15.28;100.00;98101.47;1225976;75;2917546;-67
2023/09/09 00:53:25;;;;;;;2.60;1.90;;;;;;;15.26;100.00;98106.72;1226620;75;2913831;-67
2023/09/09 00:55:58;;;;;;;3.65;1.70;;;;;;;15.22;100.00;98101.44;1224692;75;2921515;-66
2023/09/09 00:58:33;;;;;;;1.75;1.60;;;;;;;15.20;100.00;98100.41;1225485;75;2917374;-66
2023/09/09 01:01:09;;;;;;;1.75;1.65;;;;;;;15.21;100.00;98105.44;1225478;75;2915796;-70
2023/09/09 01:03:42;;;;;;;2.15;1.80;;;;;;;15.10;100.00;98097.13;1226078;75;2914569;-69
2023/09/09 01:06:14;;;;;;;3.30;2.35;;;;;;;14.97;100.00;98094.81;1225725;75;2919213;-67
2023/09/09 01:08:47;;;;;;;3.70;3.30;;;;;;;14.80;100.00;98096.75;1225869;75;2913047;-68
2023/09/09 01:11:20;;;;;;;4.40;2.50;;;;;;;15.03;100.00;98092.09;1225501;75;2918654;-68
2023/09/09 01:13:53;;;;;;;2.90;2.40;;;;;;;15.01;100.00;98097.34;1225645;75;2920976;-67
2023/09/09 01:16:29;;;;;;;2.70;2.40;;;;;;;14.94;100.00;98100.59;1225667;75;2925287;-67
2023/09/09 01:19:02;;;;;;;2.65;2.45;;;;;;;14.95;100.00;98096.56;1226560;75;2913484;-69
2023/09/09 01:21:36;;;;;;;2.30;2.10;;;;;;;14.96;100.00;98095.31;1225997;75;2916253;-66
2023/09/09 01:24:16;;;;;;;2.20;1.90;;;;;;;14.84;100.00;98095.28;1225668;75;2923208;-66
2023/09/09 01:26:49;;;;;;;2.00;1.80;;;;;;;14.73;100.00;98097.22;1225534;75;2912469;-67
2023/09/09 01:29:22;;;;;;;2.30;2.00;;;;;;;14.71;100.00;98089.44;1226192;75;2919923;-67
2023/09/09 01:31:55;;;;;;;2.25;1.90;;;;;;;14.79;100.00;98092.47;1225898;75;2923516;-67
2023/09/09 01:34:27;;;;;;;1.60;1.50;;;;;;;14.75;100.00;98091.97;1225150;75;2918765;-69
2023/09/09 01:37:00;;;;;;;2.00;1.80;;;;;;;14.66;100.00;98092.91;1226400;75;2917503;-67
2023/09/09 01:39:35;;;;;;;1.70;1.60;;;;;;;14.73;100.00;98092.47;1225643;75;2914284;-68
2023/09/09 01:42:08;;;;;;;1.70;1.60;;;;;;;14.76;100.00;98087.97;1225917;75;2915500;-69
2023/09/09 01:44:42;;;;;;;2.05;1.80;;;;;;;14.76;100.00;98090.72;1226777;75;2912803;-66
2023/09/09 01:47:15;;;;;;;2.15;1.85;;;;;;;14.74;100.00;98082.94;1225792;75;2915355;-70
2023/09/09 01:49:48;;;;;;;1.90;1.65;;;;;;;14.69;100.00;98087.16;1226271;75;2916165;-67
2023/09/09 01:52:21;;;;;;;2.70;2.00;;;;;;;14.67;100.00;98091.66;1226701;75;2913008;-66
2023/09/09 01:54:56;;;;;;;2.15;1.70;;;;;;;14.54;100.00;98089.34;1225887;75;2924274;-67
2023/09/09 01:57:29;;;;;;;2.35;2.05;;;;;;;14.40;100.00;98084.72;1225844;75;2971378;-69
2023/09/09 02:00:06;;;;;;;2.90;2.50;;;;;;;14.39;100.00;98081.22;1226742;75;2917742;-69
2023/09/09 02:02:39;;;;;;;2.70;2.50;;;;;;;14.25;100.00;98087.63;1226064;75;2917431;-70
2023/09/09 02:05:12;;;;;;;2.40;2.20;;;;;;;14.42;100.00;98088.50;1225027;75;2908566;-68
2023/09/09 02:07:44;;;;;;;2.85;2.40;;;;;;;14.39;100.00;98092.22;1226037;75;2915438;-65
2023/09/09 02:10:20;;;;;;;2.30;2.10;;;;;;;14.44;100.00;98096.28;1225496;75;2911243;-68
2023/09/09 02:12:53;;;;;;;2.30;2.00;;;;;;;14.43;100.00;98090.00;1226260;75;2913201;-69
2023/09/09 02:15:25;;;;;;;2.15;1.95;;;;;;;14.31;100.00;98088.44;1225098;75;2917105;-67
2023/09/09 02:17:58;;;;;;;2.40;1.85;;;;;;;14.38;100.00;98090.72;1225305;75;2914381;-67
2023/09/09 02:20:30;;;;;;;1.70;1.60;;;;;;;14.37;100.00;98091.22;1227124;75;2915131;-66
2023/09/09 02:23:03;;;;;;;2.10;1.85;;;;;;;14.23;100.00;98084.59;1226332;75;2914150;-67
2023/09/09 02:25:38;;;;;;;2.50;2.10;;;;;;;14.30;100.00;98092.41;1225523;75;2922305;-69
2023/09/09 02:28:11;;;;;;;2.30;2.00;;;;;;;14.30;100.00;98084.16;1224783;75;2946737;-69
2023/09/09 02:30:46;;;;;;;1.70;1.60;;;;;;;14.30;100.00;98094.41;1225900;83;2913294;-68
2023/09/09 02:33:18;;;;;;;4.15;1.80;;;;;;;14.30;100.00;98084.16;1226546;75;2913402;-67
2023/09/09 02:35:51;;;;;;;1.60;1.50;;;;;;;14.25;100.00;98084.88;1226256;75;2914276;-70
2023/09/09 02:38:24;;;;;;;1.90;1.70;;;;;;;14.26;100.00;98086.38;1225968;75;2918685;-67
2023/09/09 02:40:59;;;;;;;2.10;1.90;;;;;;;14.27;100.00;98090.66;1226104;75;2920811;-66
2023/09/09 02:43:32;;;;;;;2.05;1.85;;;;;;;14.18;100.00;98085.31;1225648;75;2918194;-69
2023/09/09 02:46:04;;;;;;;2.05;1.70;;;;;;;14.21;100.00;98078.81;1225318;75;2886630;-69
2023/09/09 02:48:37;;;;;;;2.45;2.20;;;;;;;14.25;100.00;98080.13;1224653;75;2921193;-69
2023/09/09 02:51:10;;;;;;;2.20;2.00;;;;;;;14.21;100.00;98078.81;1226457;75;2917434;-65
2023/09/09 02:53:42;;;;;;;2.05;1.80;;;;;;;14.16;100.00;98080.28;1226259;75;2913989;-67
2023/09/09 02:56:17;;;;;;;1.95;1.75;;;;;;;14.15;100.00;98087.06;1226237;75;2917545;-69
2023/09/09 02:58:50;;;;;;;2.15;1.90;;;;;;;14.14;100.00;98085.56;1225654;75;2916384;-66
2023/09/09 03:01:23;;;;;;;1.90;1.65;;;;;;;14.16;100.00;98090.56;1225751;75;2922062;-67
2023/09/09 03:03:55;;;;;;;2.10;1.55;;;;;;;14.00;100.00;98087.19;1225207;75;2918517;-66
2023/09/09 03:06:28;;;;;;;2.10;1.90;;;;;;;13.85;100.00;98083.81;1226081;75;2916950;-69
2023/09/09 03:09:01;;;;;;;2.55;2.20;;;;;;;13.89;100.00;98086.34;1225744;75;2920168;-68
2023/09/09 03:11:36;;;;;;;2.25;2.05;;;;;;;13.97;100.00;98082.66;1226223;75;2919625;-68
2023/09/09 03:14:09;;;;;;;2.15;1.95;;;;;;;13.92;100.00;98086.13;1225413;75;2910997;-69
2023/09/09 03:16:42;;;;;;;1.95;1.80;;;;;;;13.85;100.00;98083.81;1225860;75;2916980;-66
2023/09/09 03:19:14;;;;;;;1.80;1.70;;;;;;;13.93;100.00;98079.38;1225745;75;2919154;-65
2023/09/09 03:21:47;;;;;;;1.90;1.80;;;;;;;13.91;100.00;98084.63;1226047;75;2917516;-68
2023/09/09 03:24:19;;;;;;;1.85;1.75;;;;;;;13.89;100.00;98078.84;1225527;75;2916787;-67
2023/09/09 03:26:55;;;;;;;1.90;1.70;;;;;;;13.74;100.00;98078.22;1226178;75;2918281;-69
2023/09/09 03:29:27;;;;;;;2.30;2.10;;;;;;;13.74;100.00;98081.72;1225670;75;2919283;-71
2023/09/09 03:32:00;;;;;;;2.40;2.20;;;;;;;13.64;100.00;98078.38;1225694;75;2912411;-66
2023/09/09 03:34:32;;;;;;;2.50;2.30;;;;;;;13.68;100.00;98080.91;1225724;75;2914525;-65
2023/09/09 03:37:05;;;;;;;2.90;2.30;;;;;;;13.68;100.00;98080.91;1226479;67;2917451;-67
2023/09/09 03:39:37;;;;;;;3.70;2.25;;;;;;;13.72;100.00;98091.72;1225151;75;2924584;-66
2023/09/09 03:42:13;;;;;;;2.65;2.40;;;;;;;13.50;100.00;98082.00;1225842;75;2917355;-66
2023/09/09 03:44:45;;;;;;;3.35;2.80;;;;;;;13.43;100.00;98091.41;1225477;75;2923280;-66
2023/09/09 03:47:19;;;;;;;2.35;2.15;;;;;;;13.59;100.00;98083.84;1225157;75;2917174;-66
2023/09/09 03:49:54;;;;;;;3.00;2.45;;;;;;;13.59;100.00;98083.84;1226349;75;2917728;-66
2023/09/09 03:52:27;;;;;;;2.65;2.20;;;;;;;13.68;100.00;98085.66;1223295;75;3037365;-67
2023/09/09 03:54:59;;;;;;;2.55;2.25;;;;;;;13.56;100.00;98088.28;1225727;75;2915119;-67
2023/09/09 03:57:34;;;;;;;3.50;2.70;;;;;;;13.44;100.00;98086.69;1225681;75;2923467;-67
2023/09/09 04:00:10;;;;;;;3.20;2.90;;;;;;;13.48;100.00;98084.47;1225456;75;2911378;-70
2023/09/09 04:02:42;;;;;;;2.90;2.60;;;;;;;13.54;100.00;98082.53;1224880;75;2915690;-67
2023/09/09 04:05:15;;;;;;;3.45;3.00;;;;;;;13.39;100.00;98079.13;1225338;75;2914069;-65
2023/09/09 04:07:48;;;;;;;2.85;2.60;;;;;;;13.46;100.00;98084.19;1225106;75;2914424;-67
2023/09/09 04:10:20;;;;;;;3.35;2.70;;;;;;;13.38;100.00;98088.63;1225308;75;2918213;-68
2023/09/09 04:12:56;;;;;;;2.40;2.20;;;;;;;13.32;100.00;98087.81;1225778;75;2919244;-67
2023/09/09 04:15:28;;;;;;;2.40;2.20;;;;;;;13.38;100.00;98081.13;1226049;75;2913544;-66
2023/09/09 04:18:01;;;;;;;2.85;2.50;;;;;;;13.46;100.00;98083.44;1225975;67;2922865;-66
2023/09/09 04:20:33;;;;;;;2.40;2.20;;;;;;;13.36;100.00;98088.34;1213426;75;3785221;-67
2023/09/09 04:23:06;;;;;;;3.75;3.00;;;;;;;13.21;100.00;98074.66;1225490;75;2914645;-66
2023/09/09 04:25:39;;;;;;;2.90;2.60;;;;;;;13.45;100.00;98084.69;1225380;75;2914699;-65
2023/09/09 04:28:15;;;;;;;2.40;2.20;;;;;;;13.41;100.00;98085.66;1225531;75;2915338;-70
2023/09/09 04:30:47;;;;;;;2.20;2.00;;;;;;;13.48;100.00;98087.22;1225105;75;2919919;-69
2023/09/09 04:33:20;;;;;;;2.55;2.35;;;;;;;13.35;100.00;98087.59;1225769;75;2913956;-67
2023/09/09 04:35:52;;;;;;;3.05;2.75;;;;;;;13.41;100.00;98087.66;1225569;75;2914763;-67
2023/09/09 04:38:25;;;;;;;3.15;2.85;;;;;;;13.22;100.00;98085.16;1225255;75;2928711;-66
2023/09/09 04:40:58;;;;;;;2.85;2.55;;;;;;;13.46;100.00;98077.94;1225392;75;2917495;-67
2023/09/09 04:43:33;;;;;;;2.50;1.80;;;;;;;13.41;100.00;98087.66;1224889;75;2913353;-66
2023/09/09 04:46:06;;;;;;;2.30;2.10;;;;;;;13.53;100.00;98086.53;1225304;75;2921353;-66
2023/09/09 04:48:38;;;;;;;2.00;1.90;;;;;;;13.59;100.00;98089.34;1225393;75;2918345;-66
2023/09/09 04:51:11;;;;;;;2.20;2.00;;;;;;;13.53;100.00;98103.03;1225746;75;2917278;-64
2023/09/09 04:53:43;;;;;;;2.35;2.10;;;;;;;13.39;100.00;98099.13;1225363;75;2924959;-67
2023/09/09 04:56:16;;;;;;;2.10;1.90;;;;;;;13.55;100.00;98095.03;1225331;75;2919990;-65
2023/09/09 04:58:51;;;;;;;2.25;2.05;;;;;;;13.61;100.00;98090.38;1223569;75;2948271;-69
2023/09/09 05:01:24;;;;;;;2.80;1.95;;;;;;;13.51;100.00;98091.75;1225309;75;2920533;-68
2023/09/09 05:03:57;;;;;;;2.40;2.20;;;;;;;13.51;100.00;98088.25;1225769;75;2917901;-65
2023/09/09 05:06:30;;;;;;;3.05;2.15;;;;;;;13.54;100.00;98087.28;1225851;75;2918405;-68
2023/09/09 05:09:03;;;;;;;2.60;2.20;;;;;;;13.58;100.00;98085.06;1225778;75;2919510;-66
2023/09/09 05:11:35;;;;;;;2.75;2.25;;;;;;;13.59;100.00;98087.34;1225673;75;2920742;-67
2023/09/09 05:14:10;;;;;;;2.70;2.50;;;;;;;13.71;100.00;98085.44;1224749;75;2918334;-66
2023/09/09 05:16:43;;;;;;;2.60;2.40;;;;;;;13.84;100.00;98087.81;1225889;75;2914602;-68
2023/09/09 05:19:15;;;;;;;2.30;2.10;;;;;;;13.90;100.00;98090.59;1226049;75;2916742;-69
2023/09/09 05:21:48;;;;;;;2.80;2.50;;;;;;;13.73;100.00;98095.97;1224722;75;2919796;-67
2023/09/09 05:24:21;;;;;;;3.30;2.95;;;;;;;13.80;100.00;98095.53;1225739;75;2932124;-71
2023/09/09 05:26:53;;;;;;;3.65;2.80;;;;;;;13.84;100.00;98093.31;1225710;75;2920048;-70
2023/09/09 05:29:29;;;;;;;4.45;3.60;;;;;;;14.01;100.00;98104.47;1225604;75;2920698;-67
2023/09/09 05:32:01;;;;;;;5.20;4.45;;;;;;;14.10;100.00;98096.03;1226068;75;2911284;-69
2023/09/09 05:34:34;;;;;;;6.85;4.60;;;;;;;14.03;100.00;98096.47;1225739;75;2919147;-66
2023/09/09 05:37:07;;;;;;;4.70;3.50;;;;;;;14.28;100.00;98097.66;1225876;75;2914180;-68
2023/09/09 05:39:40;;;;;;;4.55;3.90;;;;;;;14.21;100.00;98101.59;1226099;75;2916535;-66
2023/09/09 05:42:13;;;;;;;3.75;3.30;;;;;;;14.37;100.00;98100.22;1225467;75;2916438;-68
2023/09/09 05:44:48;;;;;;;4.30;3.90;;;;;;;14.47;100.00;98109.06;1225872;75;2915314;-66
2023/09/09 05:47:21;;;;;;;3.40;3.10;;;;;;;14.63;100.00;98108.44;1225972;75;2913505;-68
2023/09/09 05:49:53;;;;;;;3.75;3.40;;;;;;;14.61;100.00;98107.41;1225897;75;2918796;-67
2023/09/09 05:52:26;;;;;;;3.70;3.30;;;;;;;14.72;100.00;98104.75;1225734;75;2914618;-68
2023/09/09 05:54:59;;;;;;;4.05;3.65;;;;;;;14.78;100.00;98105.50;1225908;75;2915492;-67
2023/09/09 05:57:32;;;;;;;3.85;3.40;;;;;;;14.95;100.00;98105.59;1225819;75;2918970;-67
2023/09/09 06:00:09;;;;;;;4.15;3.70;;;;;;;15.14;100.00;98108.69;1224946;75;2918916;-67
2023/09/09 06:02:42;;;;;;;3.95;3.55;;;;;;;15.27;100.00;98109.00;1225938;75;2918655;-70
2023/09/09 06:05:16;;;;;;;3.30;3.00;;;;;;;15.37;100.00;98100.47;1225551;75;2920229;-67
2023/09/09 06:07:49;;;;;;;4.60;4.20;;;;;;;15.23;100.00;98102.19;1225269;75;2916070;-69
2023/09/09 06:10:21;;;;;;;5.25;4.15;;;;;;;15.37;100.00;98109.53;1225824;75;2914138;-67
2023/09/09 06:12:54;;;;;;;5.55;5.05;;;;;;;15.32;100.00;98104.72;1225769;75;2918484;-68
2023/09/09 06:15:30;;;;;;;6.00;5.40;;;;;;;15.51;100.00;98108.56;1225475;75;2916717;-67
2023/09/09 06:18:02;;;;;;;5.90;5.30;;;;;;;15.68;100.00;98114.09;1225404;75;2915509;-71
2023/09/09 06:20:35;;;;;;;7.65;6.85;;;;;;;15.70;100.00;98117.13;1225311;75;2923415;-67
2023/09/09 06:23:08;;;;;;;5.45;4.80;;;;;;;16.16;100.00;98110.41;1225580;75;2920949;-68
2023/09/09 06:25:40;;;;;;;4.65;4.25;;;;;;;16.35;100.00;98110.63;1225654;75;2914458;-68
2023/09/09 06:28:13;;;;;;;9.55;7.70;;;;;;;16.25;100.00;98108.63;1224798;75;2924532;-69
2023/09/09 06:30:49;;;;;;;6.50;5.80;;;;;;;16.52;100.00;98109.84;1225606;75;2921196;-67
2023/09/09 06:33:21;;;;;;;6.05;4.70;;;;;;;17.11;100.00;98116.25;1225215;75;2923524;-67
2023/09/09 06:35:55;;;;;;;4.75;4.15;;;;;;;17.38;100.00;98114.63;1225033;75;2916492;-68
2023/09/09 06:38:27;;;;;;;5.50;4.90;;;;;;;17.64;100.00;98122.53;1224736;75;2919307;-70
2023/09/09 06:41:00;;;;;;;5.90;5.30;;;;;;;18.07;100.00;98127.56;1224523;75;2920300;-67
2023/09/09 06:43:32;;;;;;;7.15;6.10;;;;;;;18.10;100.00;98126.53;1225019;75;2920904;-67
2023/09/09 06:46:08;;;;;;;10.75;9.25;;;;;;;18.30;100.00;98128.91;1224974;75;2926782;-71
2023/09/09 06:48:40;;;;;;;8.05;6.70;;;;;;;19.04;100.00;98133.72;1225634;75;2916664;-67
2023/09/09 06:51:13;;;;;;;5.95;5.10;;;;;;;19.31;100.00;98132.66;1225542;75;2910742;-68
2023/09/09 06:53:45;;;;;;;4.90;4.40;;;;;;;19.70;98.13;98136.19;1225402;75;2922090;-65
2023/09/09 06:56:18;;;;;;;4.65;3.95;;;;;;;20.08;95.14;98134.09;1225257;75;2921295;-66
2023/09/09 06:58:51;;;;;;;5.85;4.25;;;;;;;20.02;94.85;98138.25;1225667;75;2920081;-69
2023/09/09 07:01:26;;;;;;;4.75;4.25;;;;;;;20.41;93.48;98137.63;1224265;75;2924211;-67
2023/09/09 07:03:59;;;;;;;6.55;3.95;;;;;;;20.40;91.24;98134.09;1225602;75;2921223;-69
2023/09/09 07:06:31;;;;;;;8.45;6.75;;;;;;;20.20;92.25;98137.44;1225567;75;2911488;-69
2023/09/09 07:09:04;;;;;;;6.15;4.90;;;;;;;20.38;91.10;98136.66;1224876;75;2922980;-65
2023/09/09 07:11:36;;;;;;;7.05;5.80;;;;;;;20.03;95.12;98134.94;1224830;75;2918028;-69
2023/09/09 07:14:09;;;;;;;7.45;5.70;;;;;;;20.13;99.49;98132.50;1224583;75;2920025;-68
2023/09/09 07:16:44;;;;;;;9.00;6.05;;;;;;;19.98;99.25;98133.00;1225646;75;2922938;-72
2023/09/09 07:19:17;;;;;;;11.15;6.40;;;;;;;20.06;97.52;98125.56;1225828;75;2923583;-74
2023/09/09 07:21:49;;;;;;;8.60;6.45;;;;;;;19.83;100.00;98135.50;1225313;75;2921171;-72
2023/09/09 07:24:22;;;;;;;9.65;6.75;;;;;;;19.54;100.00;98132.34;1225119;75;2918909;-73
2023/09/09 07:26:55;;;;;;;7.55;6.25;;;;;;;20.06;100.00;98135.91;1223655;75;2921218;-72
2023/09/09 07:29:27;;;;;;;7.60;6.80;;;;;;;19.83;100.00;98133.47;1224497;75;2917620;-71
2023/09/09 07:32:02;;;;;;;8.15;6.40;;;;;;;20.14;100.00;98136.81;1222079;75;3010526;-70
2023/09/09 07:34:37;;;;;;;10.25;6.65;;;;;;;20.19;99.31;98130.41;1225353;75;2922042;-72
2023/09/09 07:37:09;;;;;;;9.10;6.85;;;;;;;20.39;97.34;98135.34;1226076;75;2915001;-71
2023/09/09 07:39:49;;;;;;;6.30;5.55;;;;;;;20.78;94.26;98127.63;1225105;75;2922647;-71
2023/09/09 07:42:22;;;;;;;8.50;6.30;;;;;;;21.15;94.83;98128.72;1224721;75;2921715;-71
2023/09/09 07:44:55;;;;;;;9.25;6.65;;;;;;;20.57;93.34;98142.19;1225453;75;2922062;-70
2023/09/09 07:47:30;;;;;;;8.75;6.25;;;;;;;20.87;90.43;98137.59;1223167;75;2950321;-70
2023/09/09 07:50:03;;;;;;;7.15;6.00;;;;;;;20.74;93.54;98136.31;1224997;75;2921148;-68
2023/09/09 07:52:35;;;;;;;7.10;5.40;;;;;;;21.28;88.47;98137.03;1224734;75;2923165;-70
2023/09/09 07:55:09;;;;;;;6.50;5.55;;;;;;;21.50;87.35;98135.84;1224857;75;2920699;-69
2023/09/09 07:57:42;;;;;;;7.65;6.05;;;;;;;21.69;87.01;98141.25;1225561;75;2922457;-70
2023/09/09 08:00:16;;;;;;;9.40;6.40;;;;;;;21.57;85.60;98142.78;1223222;75;2974317;-70
2023/09/09 08:02:51;;;;;;;8.40;5.85;;;;;;;22.09;83.17;98141.13;1224641;75;2918497;-67
2023/09/09 08:05:24;;;;;;;7.55;6.25;;;;;;;21.67;83.16;98127.13;1225055;75;2916868;-70
2023/09/09 08:07:56;;;;;;;8.65;5.70;;;;;;;22.32;81.77;98133.75;1224956;75;2921275;-69
2023/09/09 08:10:29;;;;;;;8.00;5.30;;;;;;;22.26;81.90;98132.38;1225322;75;2915536;-68
2023/09/09 08:13:01;;;;;;;8.90;5.90;;;;;;;22.52;80.47;98139.84;1224476;75;2918951;-69
2023/09/09 08:15:34;;;;;;;9.75;6.70;;;;;;;22.01;81.91;98135.47;1224705;75;2906627;-72
2023/09/09 08:18:09;;;;;;;8.70;5.85;;;;;;;22.38;78.89;98138.44;1221737;75;3101101;-71
2023/09/09 08:20:42;;;;;;;7.85;5.35;;;;;;;22.65;77.07;98133.41;1225177;75;2923825;-72
2023/09/09 08:23:14;;;;;;;8.55;5.85;;;;;;;22.63;79.94;98133.22;1224532;75;2922904;-70
2023/09/09 08:25:47;;;;;;;8.35;6.65;;;;;;;22.24;78.95;98132.91;1224225;75;2928276;-70
2023/09/09 08:28:20;;;;;;;6.85;5.65;;;;;;;23.06;75.90;98138.16;1223046;75;2917747;-70
2023/09/09 08:30:53;;;;;;;6.70;5.45;;;;;;;23.18;73.75;98136.53;1224621;75;2920072;-70
2023/09/09 08:33:28;;;;;;;9.60;6.75;;;;;;;23.43;72.24;98138.13;1223954;75;2921628;-71
2023/09/09 08:36:02;;;;;;;6.50;5.65;;;;;;;23.91;71.82;98138.50;1225340;75;2920969;-68
2023/09/09 08:38:35;;;;;;;7.45;4.95;;;;;;;23.92;68.56;98135.16;1224141;75;2924040;-71
2023/09/09 08:41:13;;;;;;;7.30;5.50;;;;;;;24.36;69.19;98135.00;1222641;75;2921957;-71
2023/09/09 08:43:54;;;;;;;7.90;5.20;;;;;;;23.88;67.89;98122.84;1222965;75;2919035;-73
2023/09/09 08:46:26;;;;;;;7.80;5.45;;;;;;;24.45;67.78;98133.72;1223894;75;2929265;-70
2023/09/09 08:49:05;;;;;;;7.65;4.75;;;;;;;24.20;67.07;98125.88;1224608;75;2953088;-69
2023/09/09 08:51:48;;;;;;;5.80;5.05;;;;;;;24.93;65.50;98119.88;1225528;75;2925306;-69
2023/09/09 08:54:21;;;;;;;5.85;5.00;;;;;;;25.43;62.48;98124.97;1225426;75;2917480;-69
2023/09/09 08:56:54;;;;;;;6.85;4.05;;;;;;;25.66;60.93;98120.00;1225318;75;2924354;-72
2023/09/09 08:59:28;;;;;;;5.60;4.20;;;;;;;26.57;58.93;98125.56;1225004;75;2951030;-73
2023/09/09 09:02:02;;;;;;;4.95;3.95;;;;;;;25.68;59.55;98122.22;1225187;75;2913867;-72
2023/09/09 09:04:40;;;;;;;5.15;4.10;;;;;;;26.24;58.38;98124.88;1220188;75;3065359;-72
2023/09/09 09:07:14;;;;;;;6.30;4.40;;;;;;;26.84;57.42;98124.94;1225325;75;2923051;-72
2023/09/09 09:09:47;;;;;;;3.90;3.50;;;;;;;26.57;55.60;98122.75;1224690;75;2918980;-71
2023/09/09 09:12:19;;;;;;;5.90;3.60;;;;;;;26.86;55.62;98125.09;1225280;75;2916451;-72
2023/09/09 09:14:52;;;;;;;4.70;4.10;;;;;;;26.90;54.69;98117.00;1224982;75;2920112;-71
2023/09/09 09:17:26;;;;;;;5.70;4.30;;;;;;;27.39;51.28;98110.47;1224458;75;2921117;-71
2023/09/09 09:20:01;;;;;;;4.50;3.45;;;;;;;27.08;51.56;98117.75;1224798;75;2916641;-69
2023/09/09 09:22:37;;;;;;;3.15;2.85;;;;;;;28.04;49.17;98112.06;1223394;75;2916545;-73
2023/09/09 09:25:11;;;;;;;4.25;3.00;;;;;;;27.46;50.52;98108.88;1224914;75;2922079;-70
2023/09/09 09:27:44;;;;;;;3.50;2.90;;;;;;;27.80;51.01;98112.91;1225141;75;2922989;-71
2023/09/09 09:30:16;;;;;;;4.05;2.95;;;;;;;28.88;48.94;98112.69;1225057;75;2920208;-73
2023/09/09 09:32:49;;;;;;;4.30;3.20;;;;;;;29.73;46.77;98099.78;1220703;75;2917957;-72
2023/09/09 09:35:33;;;;;;;6.90;3.60;;;;;;;29.88;47.13;98093.03;1223907;75;2918231;-71
2023/09/09 09:38:09;;;;;;;5.45;3.60;;;;;;;29.88;45.46;98107.88;1224511;75;2928158;-73
2023/09/09 09:40:43;;;;;;;5.55;3.25;;;;;;;30.45;45.66;98096.94;1224946;75;2938656;-73
2023/09/09 09:43:23;;;;;;;4.80;3.40;;;;;;;29.45;44.82;98104.09;1223360;75;2994113;-73
2023/09/09 09:45:56;;;;;;;4.05;3.20;;;;;;;28.78;46.14;98100.69;1225032;75;2919318;-69
2023/09/09 09:48:30;;;;;;;3.75;2.90;;;;;;;29.57;46.20;98096.50;1224264;75;2915019;-71
2023/09/09 09:51:05;;;;;;;4.10;2.80;;;;;;;28.77;46.46;98092.84;1221476;75;3062222;-74
2023/09/09 09:53:53;;;;;;;5.40;3.45;;;;;;;29.51;45.20;98093.25;1224933;75;2920516;-74
2023/09/09 09:56:26;;;;;;;5.10;2.60;;;;;;;30.08;44.82;98094.41;1225919;75;2920180;-73
2023/09/09 09:58:59;;;;;;;4.10;3.10;;;;;;;30.13;44.80;98087.69;1225481;75;2918641;-71
2023/09/09 10:01:32;;;;;;;2.55;2.35;;;;;;;31.51;43.00;98091.81;1223759;75;2924270;-73
2023/09/09 10:04:09;;;;;;;6.30;3.25;;;;;;;30.89;43.38;98092.78;1224342;75;2927044;-71
2023/09/09 10:06:45;;;;;;;2.80;2.40;;;;;;;31.51;42.01;98091.06;1225727;75;2927345;-70
2023/09/09 10:09:25;;;;;;;4.65;3.30;;;;;;;30.09;42.00;98086.69;1222842;75;2964530;-73
2023/09/09 10:12:05;;;;;;;4.40;3.05;;;;;;;30.75;43.03;98083.34;1225419;75;2919562;-74
2023/09/09 10:14:39;;;;;;;4.05;3.00;;;;;;;29.64;43.10;98089.22;1224282;75;2923481;-73
2023/09/09 10:17:13;;;;;;;4.35;3.25;;;;;;;29.58;45.03;98089.50;1225634;75;2918790;-76
2023/09/09 10:19:49;;;;;;;5.85;3.50;;;;;;;28.92;45.72;98092.53;1225479;75;2921096;-73
2023/09/09 10:22:25;;;;;;;3.95;2.60;;;;;;;30.25;43.43;98087.06;1225843;75;2921263;-74
2023/09/09 10:24:59;;;;;;;3.20;2.45;;;;;;;30.41;41.37;98088.19;1225379;75;2925022;-72
2023/09/09 10:27:32;;;;;;;2.80;2.20;;;;;;;29.62;42.22;98092.63;1225154;75;2924790;-72
2023/09/09 10:30:06;;;;;;;4.30;2.90;;;;;;;30.07;43.40;98078.09;1226161;75;2915135;-75
2023/09/09 10:32:39;;;;;;;3.05;2.60;;;;;;;30.98;42.35;98079.91;1225765;75;2919217;-75
2023/09/09 10:35:14;;;;;;;5.45;3.20;;;;;;;29.88;43.42;98076.81;1225089;75;2925298;-73
2023/09/09 10:37:50;;;;;;;7.80;4.65;;;;;;;30.97;42.53;98072.78;1225214;75;2921470;-71
2023/09/09 10:40:24;;;;;;;5.00;3.45;;;;;;;31.09;41.66;98072.84;1223558;75;2957583;-74
2023/09/09 10:42:57;;;;;;;4.35;3.25;;;;;;;29.10;45.20;98073.41;1225304;75;2919722;-72
2023/09/09 10:45:32;;;;;;;4.60;3.05;;;;;;;29.69;43.00;98071.25;1224704;75;2919593;-75
2023/09/09 10:48:07;;;;;;;3.70;2.40;;;;;;;30.66;42.46;98067.22;1224223;75;2928287;-72
2023/09/09 10:50:46;;;;;;;3.10;2.50;;;;;;;30.80;41.99;98065.31;1224355;75;2924129;-70
2023/09/09 10:53:26;;;;;;;3.20;2.65;;;;;;;31.56;40.32;98061.69;1224856;75;2917911;-73
2023/09/09 10:56:00;;;;;;;4.00;2.70;;;;;;;30.04;41.09;98057.47;1224491;75;2927045;-71
2023/09/09 10:58:37;;;;;;;5.45;3.40;;;;;;;29.91;40.62;98069.25;1224741;75;2930132;-72
2023/09/09 11:01:10;;;;;;;3.00;2.55;;;;;;;30.01;40.67;98057.91;1224984;75;2922736;-74
2023/09/09 11:03:51;;;;;;;3.45;2.65;;;;;;;29.76;41.39;98059.06;1225607;75;2917774;-72
2023/09/09 11:06:28;;;;;;;4.75;2.80;;;;;;;29.82;41.74;98056.63;1224378;75;2926791;-72
2023/09/09 11:09:05;;;;;;;4.00;2.80;;;;;;;29.60;41.81;98052.25;1225585;75;2924644;-71
2023/09/09 11:11:42;;;;;;;3.50;2.40;;;;;;;30.37;42.62;98048.38;1225272;75;2924386;-73
2023/09/09 11:14:15;;;;;;;3.70;2.60;;;;;;;31.03;41.15;98047.75;1225101;75;2921125;-73
2023/09/09 11:16:48;;;;;;;5.35;3.25;;;;;;;30.75;41.25;98044.53;1225343;75;2918200;-74
2023/09/09 11:19:24;;;;;;;2.50;2.15;;;;;;;31.56;40.12;98042.63;1225271;75;2925291;-71
2023/09/09 11:21:58;;;;;;;4.25;2.85;;;;;;;30.78;38.83;98048.94;1224291;75;2933634;-75
2023/09/09 11:24:33;;;;;;;5.15;2.75;;;;;;;30.93;37.66;98053.50;1224224;75;2917083;-72
2023/09/09 11:27:08;;;;;;;4.05;2.75;;;;;;;31.13;36.42;98051.22;1225282;75;2926711;-72
2023/09/09 11:29:40;;;;;;;6.50;3.10;;;;;;;31.18;38.59;98050.13;1224913;75;2924684;-71
2023/09/09 11:32:13;;;;;;;3.70;2.80;;;;;;;30.99;38.59;98042.56;1225506;75;2920245;-71
2023/09/09 11:34:47;;;;;;;4.50;2.75;;;;;;;31.48;37.64;98038.53;1224189;75;2917721;-72
2023/09/09 11:37:20;;;;;;;3.85;2.50;;;;;;;31.13;36.20;98044.81;1225276;75;2925033;-72
2023/09/09 11:39:55;;;;;;;3.75;2.55;;;;;;;30.95;38.09;98044.38;1224905;75;2919992;-72
2023/09/09 11:42:28;;;;;;;3.65;2.50;;;;;;;31.58;38.13;98037.09;1224572;75;2924524;-72